sensor_id;sensor_type;location;lat;lon;timestamp;P1;durP1;ratioP1;P2;durP2;ratioP2
10687;SDS011;5392;42.688;23.298;2024-03-06T00:02:10;21.70;;;10.02;;
10687;SDS011;5392;42.688;23.298;2024-03-06T00:04:36;19.30;;;10.65;;
10687;SDS011;5392;42.688;23.298;2024-03-06T00:07:02;19.50;;;8.77;;
10687;SDS011;5392;42.688;23.298;2024-03-06T00:09:28;23.73;;;10.90;;
10687;SDS011;5392;42.688;23.298;2024-03-06T00:11:53;19.55;;;9.48;;
10687;SDS011;5392;42.688;23.298;2024-03-06T00:14:20;21.85;;;9.43;;
10687;SDS011;5392;42.688;23.298;2024-03-06T00:16:49;22.60;;;10.23;;
10687;SDS011;5392;42.688;23.298;2024-03-06T00:19:18;21.65;;;9.98;;
10687;SDS011;5392;42.688;23.298;2024-03-06T00:21:44;21.35;;;9.70;;
10687;SDS011;5392;42.688;23.298;2024-03-06T00:24:13;22.02;;;9.75;;
10687;SDS011;5392;42.688;23.298;2024-03-06T00:26:44;22.42;;;10.75;;
10687;SDS011;5392;42.688;23.298;2024-03-06T00:29:10;22.98;;;10.25;;
10687;SDS011;5392;42.688;23.298;2024-03-06T00:31:36;22.73;;;11.25;;
10687;SDS011;5392;42.688;23.298;2024-03-06T00:34:02;24.45;;;11.23;;
10687;SDS011;5392;42.688;23.298;2024-03-06T00:36:27;25.27;;;11.18;;
10687;SDS011;5392;42.688;23.298;2024-03-06T00:38:53;25.65;;;11.25;;
10687;SDS011;5392;42.688;23.298;2024-03-06T00:41:19;23.13;;;10.98;;
10687;SDS011;5392;42.688;23.298;2024-03-06T00:43:44;23.98;;;10.57;;
10687;SDS011;5392;42.688;23.298;2024-03-06T00:46:10;25.48;;;11.45;;
10687;SDS011;5392;42.688;23.298;2024-03-06T00:48:36;21.50;;;10.35;;
10687;SDS011;5392;42.688;23.298;2024-03-06T00:51:04;23.73;;;11.35;;
10687;SDS011;5392;42.688;23.298;2024-03-06T00:53:30;20.35;;;9.98;;
10687;SDS011;5392;42.688;23.298;2024-03-06T00:55:55;23.98;;;11.32;;
10687;SDS011;5392;42.688;23.298;2024-03-06T00:58:21;22.42;;;11.10;;
10687;SDS011;5392;42.688;23.298;2024-03-06T01:00:46;24.77;;;9.88;;
10687;SDS011;5392;42.688;23.298;2024-03-06T01:03:12;23.27;;;11.75;;
10687;SDS011;5392;42.688;23.298;2024-03-06T01:05:37;22.05;;;11.43;;
10687;SDS011;5392;42.688;23.298;2024-03-06T01:08:03;25.73;;;10.73;;
10687;SDS011;5392;42.688;23.298;2024-03-06T01:10:28;26.10;;;12.00;;
10687;SDS011;5392;42.688;23.298;2024-03-06T01:12:54;25.20;;;10.77;;
10687;SDS011;5392;42.688;23.298;2024-03-06T01:15:19;24.90;;;11.23;;
10687;SDS011;5392;42.688;23.298;2024-03-06T01:17:45;25.95;;;11.40;;
10687;SDS011;5392;42.688;23.298;2024-03-06T01:20:11;25.65;;;11.57;;
10687;SDS011;5392;42.688;23.298;2024-03-06T01:22:36;29.50;;;11.50;;
10687;SDS011;5392;42.688;23.298;2024-03-06T01:25:02;18.67;;;9.48;;
10687;SDS011;5392;42.688;23.298;2024-03-06T01:27:28;21.67;;;10.57;;
10687;SDS011;5392;42.688;23.298;2024-03-06T01:29:53;21.98;;;10.38;;
10687;SDS011;5392;42.688;23.298;2024-03-06T01:32:19;21.33;;;10.23;;
10687;SDS011;5392;42.688;23.298;2024-03-06T01:34:44;22.33;;;10.38;;
10687;SDS011;5392;42.688;23.298;2024-03-06T01:37:10;24.88;;;10.48;;
10687;SDS011;5392;42.688;23.298;2024-03-06T01:39:36;19.85;;;10.00;;
10687;SDS011;5392;42.688;23.298;2024-03-06T01:42:02;20.00;;;9.30;;
10687;SDS011;5392;42.688;23.298;2024-03-06T01:44:28;25.15;;;11.23;;
10687;SDS011;5392;42.688;23.298;2024-03-06T01:46:54;20.52;;;9.77;;
10687;SDS011;5392;42.688;23.298;2024-03-06T01:49:19;26.75;;;11.57;;
10687;SDS011;5392;42.688;23.298;2024-03-06T01:51:50;26.13;;;12.15;;
10687;SDS011;5392;42.688;23.298;2024-03-06T01:54:18;22.15;;;10.73;;
10687;SDS011;5392;42.688;23.298;2024-03-06T01:56:45;24.15;;;11.23;;
10687;SDS011;5392;42.688;23.298;2024-03-06T01:59:15;24.13;;;10.82;;
10687;SDS011;5392;42.688;23.298;2024-03-06T02:01:44;24.50;;;11.18;;
10687;SDS011;5392;42.688;23.298;2024-03-06T02:04:11;29.73;;;11.82;;
10687;SDS011;5392;42.688;23.298;2024-03-06T02:06:40;23.80;;;11.85;;
10687;SDS011;5392;42.688;23.298;2024-03-06T02:09:06;26.35;;;11.75;;
10687;SDS011;5392;42.688;23.298;2024-03-06T02:11:32;26.05;;;12.63;;
10687;SDS011;5392;42.688;23.298;2024-03-06T02:13:58;26.25;;;11.60;;
10687;SDS011;5392;42.688;23.298;2024-03-06T02:16:23;24.08;;;11.55;;
10687;SDS011;5392;42.688;23.298;2024-03-06T02:18:52;25.23;;;10.90;;
10687;SDS011;5392;42.688;23.298;2024-03-06T02:21:21;28.40;;;11.45;;
10687;SDS011;5392;42.688;23.298;2024-03-06T02:23:48;30.65;;;11.07;;
10687;SDS011;5392;42.688;23.298;2024-03-06T02:26:16;21.75;;;10.02;;
10687;SDS011;5392;42.688;23.298;2024-03-06T02:28:48;24.58;;;10.98;;
10687;SDS011;5392;42.688;23.298;2024-03-06T02:31:17;24.88;;;11.45;;
10687;SDS011;5392;42.688;23.298;2024-03-06T02:33:43;22.42;;;11.25;;
10687;SDS011;5392;42.688;23.298;2024-03-06T02:36:18;26.30;;;11.63;;
10687;SDS011;5392;42.688;23.298;2024-03-06T02:38:44;26.90;;;11.60;;
10687;SDS011;5392;42.688;23.298;2024-03-06T02:41:10;20.10;;;9.55;;
10687;SDS011;5392;42.688;23.298;2024-03-06T02:43:36;22.98;;;10.30;;
10687;SDS011;5392;42.688;23.298;2024-03-06T02:46:02;24.98;;;10.73;;
10687;SDS011;5392;42.688;23.298;2024-03-06T02:48:28;25.33;;;10.90;;
10687;SDS011;5392;42.688;23.298;2024-03-06T02:50:54;25.05;;;10.90;;
10687;SDS011;5392;42.688;23.298;2024-03-06T02:55:46;21.58;;;9.52;;
10687;SDS011;5392;42.688;23.298;2024-03-06T02:58:12;26.67;;;10.93;;
10687;SDS011;5392;42.688;23.298;2024-03-06T03:00:39;26.45;;;9.88;;
10687;SDS011;5392;42.688;23.298;2024-03-06T03:03:06;21.50;;;9.63;;
10687;SDS011;5392;42.688;23.298;2024-03-06T03:05:31;28.73;;;10.40;;
10687;SDS011;5392;42.688;23.298;2024-03-06T03:07:58;19.05;;;10.20;;
10687;SDS011;5392;42.688;23.298;2024-03-06T03:10:24;21.05;;;9.68;;
10687;SDS011;5392;42.688;23.298;2024-03-06T03:12:49;21.35;;;9.63;;
10687;SDS011;5392;42.688;23.298;2024-03-06T03:15:16;24.15;;;10.48;;
10687;SDS011;5392;42.688;23.298;2024-03-06T03:17:41;21.25;;;9.40;;
10687;SDS011;5392;42.688;23.298;2024-03-06T03:20:07;26.00;;;10.90;;
10687;SDS011;5392;42.688;23.298;2024-03-06T03:22:37;22.25;;;10.57;;
10687;SDS011;5392;42.688;23.298;2024-03-06T03:25:04;23.08;;;10.30;;
10687;SDS011;5392;42.688;23.298;2024-03-06T03:27:33;23.73;;;10.10;;
10687;SDS011;5392;42.688;23.298;2024-03-06T03:29:58;23.02;;;11.43;;
10687;SDS011;5392;42.688;23.298;2024-03-06T03:32:24;24.80;;;11.43;;
10687;SDS011;5392;42.688;23.298;2024-03-06T03:34:50;25.85;;;10.57;;
10687;SDS011;5392;42.688;23.298;2024-03-06T03:37:15;23.55;;;10.82;;
10687;SDS011;5392;42.688;23.298;2024-03-06T03:39:43;27.42;;;10.98;;
10687;SDS011;5392;42.688;23.298;2024-03-06T03:42:09;23.38;;;10.77;;
10687;SDS011;5392;42.688;23.298;2024-03-06T03:44:34;21.77;;;9.45;;
10687;SDS011;5392;42.688;23.298;2024-03-06T03:47:00;26.15;;;10.32;;
10687;SDS011;5392;42.688;23.298;2024-03-06T03:49:25;26.05;;;10.77;;
10687;SDS011;5392;42.688;23.298;2024-03-06T03:51:51;28.13;;;11.93;;
10687;SDS011;5392;42.688;23.298;2024-03-06T03:54:17;24.77;;;11.32;;
10687;SDS011;5392;42.688;23.298;2024-03-06T03:56:42;26.33;;;11.82;;
10687;SDS011;5392;42.688;23.298;2024-03-06T03:59:07;25.42;;;11.85;;
10687;SDS011;5392;42.688;23.298;2024-03-06T04:01:33;24.10;;;11.40;;
10687;SDS011;5392;42.688;23.298;2024-03-06T04:03:58;21.88;;;10.85;;
10687;SDS011;5392;42.688;23.298;2024-03-06T04:06:24;28.60;;;12.70;;
10687;SDS011;5392;42.688;23.298;2024-03-06T04:08:50;31.27;;;12.38;;
10687;SDS011;5392;42.688;23.298;2024-03-06T04:11:15;23.60;;;10.82;;
10687;SDS011;5392;42.688;23.298;2024-03-06T04:13:41;23.77;;;11.57;;
10687;SDS011;5392;42.688;23.298;2024-03-06T04:16:06;20.80;;;10.07;;
10687;SDS011;5392;42.688;23.298;2024-03-06T04:18:32;23.58;;;10.10;;
10687;SDS011;5392;42.688;23.298;2024-03-06T04:21:04;27.50;;;12.20;;
10687;SDS011;5392;42.688;23.298;2024-03-06T04:23:31;25.73;;;12.63;;
10687;SDS011;5392;42.688;23.298;2024-03-06T04:25:58;26.70;;;12.95;;
10687;SDS011;5392;42.688;23.298;2024-03-06T04:28:24;27.42;;;11.68;;
10687;SDS011;5392;42.688;23.298;2024-03-06T04:30:49;31.50;;;13.13;;
10687;SDS011;5392;42.688;23.298;2024-03-06T04:33:15;27.85;;;12.05;;
10687;SDS011;5392;42.688;23.298;2024-03-06T04:35:40;22.67;;;12.18;;
10687;SDS011;5392;42.688;23.298;2024-03-06T04:38:06;27.77;;;11.32;;
10687;SDS011;5392;42.688;23.298;2024-03-06T04:40:33;25.95;;;12.20;;
10687;SDS011;5392;42.688;23.298;2024-03-06T04:42:59;27.92;;;11.23;;
10687;SDS011;5392;42.688;23.298;2024-03-06T04:45:25;21.50;;;11.27;;
10687;SDS011;5392;42.688;23.298;2024-03-06T04:47:51;21.83;;;11.30;;
10687;SDS011;5392;42.688;23.298;2024-03-06T04:50:16;24.52;;;11.70;;
10687;SDS011;5392;42.688;23.298;2024-03-06T04:52:42;23.45;;;11.60;;
10687;SDS011;5392;42.688;23.298;2024-03-06T04:55:09;23.52;;;10.23;;
10687;SDS011;5392;42.688;23.298;2024-03-06T04:57:36;26.08;;;11.02;;
10687;SDS011;5392;42.688;23.298;2024-03-06T05:00:02;25.10;;;10.60;;
10687;SDS011;5392;42.688;23.298;2024-03-06T05:02:31;27.70;;;10.93;;
10687;SDS011;5392;42.688;23.298;2024-03-06T05:05:01;27.17;;;12.10;;
10687;SDS011;5392;42.688;23.298;2024-03-06T05:07:30;28.02;;;13.38;;
10687;SDS011;5392;42.688;23.298;2024-03-06T05:09:56;37.53;;;13.68;;
10687;SDS011;5392;42.688;23.298;2024-03-06T05:12:23;31.75;;;14.73;;
10687;SDS011;5392;42.688;23.298;2024-03-06T05:14:50;34.85;;;13.40;;
10687;SDS011;5392;42.688;23.298;2024-03-06T05:17:16;34.40;;;14.00;;
10687;SDS011;5392;42.688;23.298;2024-03-06T05:19:42;33.20;;;16.00;;
10687;SDS011;5392;42.688;23.298;2024-03-06T05:22:08;28.83;;;13.00;;
10687;SDS011;5392;42.688;23.298;2024-03-06T05:24:33;30.98;;;12.80;;
10687;SDS011;5392;42.688;23.298;2024-03-06T05:26:59;33.45;;;14.73;;
10687;SDS011;5392;42.688;23.298;2024-03-06T05:29:24;28.75;;;13.93;;
10687;SDS011;5392;42.688;23.298;2024-03-06T05:31:51;38.15;;;14.60;;
10687;SDS011;5392;42.688;23.298;2024-03-06T05:34:16;27.85;;;12.93;;
10687;SDS011;5392;42.688;23.298;2024-03-06T05:36:42;31.67;;;13.95;;
10687;SDS011;5392;42.688;23.298;2024-03-06T05:39:07;35.22;;;14.93;;
10687;SDS011;5392;42.688;23.298;2024-03-06T05:41:37;27.80;;;13.40;;
10687;SDS011;5392;42.688;23.298;2024-03-06T05:44:05;26.58;;;13.98;;
10687;SDS011;5392;42.688;23.298;2024-03-06T05:46:31;26.15;;;12.93;;
10687;SDS011;5392;42.688;23.298;2024-03-06T05:48:56;26.17;;;11.60;;
10687;SDS011;5392;42.688;23.298;2024-03-06T05:51:22;21.33;;;11.68;;
10687;SDS011;5392;42.688;23.298;2024-03-06T05:53:47;23.88;;;10.82;;
10687;SDS011;5392;42.688;23.298;2024-03-06T05:56:13;21.98;;;10.90;;
10687;SDS011;5392;42.688;23.298;2024-03-06T05:58:38;28.55;;;11.35;;
10687;SDS011;5392;42.688;23.298;2024-03-06T06:01:04;22.55;;;12.20;;
10687;SDS011;5392;42.688;23.298;2024-03-06T06:03:29;29.65;;;13.52;;
10687;SDS011;5392;42.688;23.298;2024-03-06T06:05:55;27.35;;;12.70;;
10687;SDS011;5392;42.688;23.298;2024-03-06T06:08:21;26.77;;;12.82;;
10687;SDS011;5392;42.688;23.298;2024-03-06T06:10:47;23.25;;;11.75;;
10687;SDS011;5392;42.688;23.298;2024-03-06T06:13:12;20.92;;;10.50;;
10687;SDS011;5392;42.688;23.298;2024-03-06T06:15:38;23.20;;;11.55;;
10687;SDS011;5392;42.688;23.298;2024-03-06T06:18:03;23.85;;;11.73;;
10687;SDS011;5392;42.688;23.298;2024-03-06T06:20:29;31.38;;;12.48;;
10687;SDS011;5392;42.688;23.298;2024-03-06T06:22:55;29.98;;;11.90;;
10687;SDS011;5392;42.688;23.298;2024-03-06T06:25:21;24.20;;;12.27;;
10687;SDS011;5392;42.688;23.298;2024-03-06T06:27:47;27.58;;;11.27;;
10687;SDS011;5392;42.688;23.298;2024-03-06T06:30:14;27.75;;;13.88;;
10687;SDS011;5392;42.688;23.298;2024-03-06T06:32:41;26.38;;;13.20;;
10687;SDS011;5392;42.688;23.298;2024-03-06T06:35:08;22.90;;;11.40;;
10687;SDS011;5392;42.688;23.298;2024-03-06T06:37:34;19.38;;;11.02;;
10687;SDS011;5392;42.688;23.298;2024-03-06T06:40:00;20.40;;;10.60;;
10687;SDS011;5392;42.688;23.298;2024-03-06T06:42:31;22.08;;;10.35;;
10687;SDS011;5392;42.688;23.298;2024-03-06T06:44:58;22.60;;;11.15;;
10687;SDS011;5392;42.688;23.298;2024-03-06T06:47:23;25.40;;;10.63;;
10687;SDS011;5392;42.688;23.298;2024-03-06T06:49:49;19.02;;;10.27;;
10687;SDS011;5392;42.688;23.298;2024-03-06T06:52:15;26.15;;;11.02;;
10687;SDS011;5392;42.688;23.298;2024-03-06T06:54:41;22.27;;;10.88;;
10687;SDS011;5392;42.688;23.298;2024-03-06T06:57:06;20.88;;;9.95;;
10687;SDS011;5392;42.688;23.298;2024-03-06T06:59:33;20.67;;;10.40;;
10687;SDS011;5392;42.688;23.298;2024-03-06T07:01:59;20.67;;;10.63;;
10687;SDS011;5392;42.688;23.298;2024-03-06T07:04:25;18.15;;;9.57;;
10687;SDS011;5392;42.688;23.298;2024-03-06T07:06:51;22.60;;;10.77;;
10687;SDS011;5392;42.688;23.298;2024-03-06T07:09:17;26.60;;;12.10;;
10687;SDS011;5392;42.688;23.298;2024-03-06T07:11:43;28.63;;;12.48;;
10687;SDS011;5392;42.688;23.298;2024-03-06T07:14:10;25.88;;;12.60;;
10687;SDS011;5392;42.688;23.298;2024-03-06T07:16:43;27.40;;;13.75;;
10687;SDS011;5392;42.688;23.298;2024-03-06T07:19:09;29.23;;;12.40;;
10687;SDS011;5392;42.688;23.298;2024-03-06T07:21:35;26.65;;;12.13;;
10687;SDS011;5392;42.688;23.298;2024-03-06T07:24:01;25.95;;;12.52;;
10687;SDS011;5392;42.688;23.298;2024-03-06T07:26:26;27.48;;;11.73;;
10687;SDS011;5392;42.688;23.298;2024-03-06T07:28:55;26.52;;;13.25;;
10687;SDS011;5392;42.688;23.298;2024-03-06T07:31:20;24.83;;;12.27;;
10687;SDS011;5392;42.688;23.298;2024-03-06T07:33:46;25.15;;;13.10;;
10687;SDS011;5392;42.688;23.298;2024-03-06T07:36:11;21.17;;;11.00;;
10687;SDS011;5392;42.688;23.298;2024-03-06T07:38:37;27.08;;;11.50;;
10687;SDS011;5392;42.688;23.298;2024-03-06T07:41:03;22.15;;;10.40;;
10687;SDS011;5392;42.688;23.298;2024-03-06T07:43:28;20.55;;;11.13;;
10687;SDS011;5392;42.688;23.298;2024-03-06T07:45:54;25.15;;;11.55;;
10687;SDS011;5392;42.688;23.298;2024-03-06T07:48:20;23.60;;;10.98;;
10687;SDS011;5392;42.688;23.298;2024-03-06T07:53:11;19.08;;;10.80;;
10687;SDS011;5392;42.688;23.298;2024-03-06T07:55:37;20.00;;;10.73;;
10687;SDS011;5392;42.688;23.298;2024-03-06T07:58:04;20.15;;;10.68;;
10687;SDS011;5392;42.688;23.298;2024-03-06T08:00:30;19.85;;;11.40;;
10687;SDS011;5392;42.688;23.298;2024-03-06T08:02:56;26.92;;;11.77;;
10687;SDS011;5392;42.688;23.298;2024-03-06T08:07:47;21.93;;;10.83;;
10687;SDS011;5392;42.688;23.298;2024-03-06T08:10:13;22.35;;;11.40;;
10687;SDS011;5392;42.688;23.298;2024-03-06T08:12:39;22.05;;;11.32;;
10687;SDS011;5392;42.688;23.298;2024-03-06T08:15:07;19.63;;;10.73;;
10687;SDS011;5392;42.688;23.298;2024-03-06T08:17:35;26.65;;;11.90;;
10687;SDS011;5392;42.688;23.298;2024-03-06T08:20:04;23.83;;;11.20;;
10687;SDS011;5392;42.688;23.298;2024-03-06T08:22:41;27.50;;;11.13;;
10687;SDS011;5392;42.688;23.298;2024-03-06T08:25:11;21.50;;;10.80;;
10687;SDS011;5392;42.688;23.298;2024-03-06T08:27:38;23.63;;;11.60;;
10687;SDS011;5392;42.688;23.298;2024-03-06T08:30:06;23.98;;;11.07;;
10687;SDS011;5392;42.688;23.298;2024-03-06T08:32:33;21.13;;;11.65;;
10687;SDS011;5392;42.688;23.298;2024-03-06T08:35:03;20.80;;;11.52;;
10687;SDS011;5392;42.688;23.298;2024-03-06T08:37:39;21.33;;;10.98;;
10687;SDS011;5392;42.688;23.298;2024-03-06T08:40:05;20.30;;;10.00;;
10687;SDS011;5392;42.688;23.298;2024-03-06T08:42:43;18.95;;;10.60;;
10687;SDS011;5392;42.688;23.298;2024-03-06T08:45:14;23.58;;;12.13;;
10687;SDS011;5392;42.688;23.298;2024-03-06T08:47:40;21.20;;;10.88;;
10687;SDS011;5392;42.688;23.298;2024-03-06T08:50:06;19.85;;;10.63;;
10687;SDS011;5392;42.688;23.298;2024-03-06T08:52:33;20.15;;;10.00;;
10687;SDS011;5392;42.688;23.298;2024-03-06T08:54:59;18.85;;;10.10;;
10687;SDS011;5392;42.688;23.298;2024-03-06T08:57:25;19.42;;;10.95;;
10687;SDS011;5392;42.688;23.298;2024-03-06T08:59:53;20.55;;;10.75;;
10687;SDS011;5392;42.688;23.298;2024-03-06T09:02:19;26.83;;;10.75;;
10687;SDS011;5392;42.688;23.298;2024-03-06T09:07:11;22.63;;;10.95;;
10687;SDS011;5392;42.688;23.298;2024-03-06T09:09:37;25.88;;;11.50;;
10687;SDS011;5392;42.688;23.298;2024-03-06T09:12:07;22.80;;;12.32;;
10687;SDS011;5392;42.688;23.298;2024-03-06T09:14:37;20.17;;;10.85;;
10687;SDS011;5392;42.688;23.298;2024-03-06T09:17:04;18.23;;;10.25;;
10687;SDS011;5392;42.688;23.298;2024-03-06T09:19:30;18.75;;;10.23;;
10687;SDS011;5392;42.688;23.298;2024-03-06T09:21:56;25.02;;;11.07;;
10687;SDS011;5392;42.688;23.298;2024-03-06T09:24:23;23.23;;;10.90;;
10687;SDS011;5392;42.688;23.298;2024-03-06T09:26:51;25.63;;;11.00;;
10687;SDS011;5392;42.688;23.298;2024-03-06T09:29:17;21.23;;;11.57;;
10687;SDS011;5392;42.688;23.298;2024-03-06T09:34:09;24.38;;;11.52;;
10687;SDS011;5392;42.688;23.298;2024-03-06T09:36:49;19.50;;;11.50;;
10687;SDS011;5392;42.688;23.298;2024-03-06T09:39:16;18.90;;;10.23;;
10687;SDS011;5392;42.688;23.298;2024-03-06T09:41:45;21.05;;;10.18;;
10687;SDS011;5392;42.688;23.298;2024-03-06T09:44:12;23.77;;;9.32;;
10687;SDS011;5392;42.688;23.298;2024-03-06T09:46:44;18.45;;;8.75;;
10687;SDS011;5392;42.688;23.298;2024-03-06T09:49:11;19.30;;;9.77;;
10687;SDS011;5392;42.688;23.298;2024-03-06T09:51:48;22.80;;;11.10;;
10687;SDS011;5392;42.688;23.298;2024-03-06T09:54:18;17.88;;;8.65;;
10687;SDS011;5392;42.688;23.298;2024-03-06T09:56:45;17.20;;;8.27;;
10687;SDS011;5392;42.688;23.298;2024-03-06T09:59:14;17.63;;;8.43;;
10687;SDS011;5392;42.688;23.298;2024-03-06T10:01:47;14.48;;;8.10;;
10687;SDS011;5392;42.688;23.298;2024-03-06T10:06:50;13.75;;;7.47;;
10687;SDS011;5392;42.688;23.298;2024-03-06T10:09:18;10.48;;;6.30;;
10687;SDS011;5392;42.688;23.298;2024-03-06T10:11:46;10.73;;;6.15;;
10687;SDS011;5392;42.688;23.298;2024-03-06T10:16:51;10.52;;;6.43;;
10687;SDS011;5392;42.688;23.298;2024-03-06T10:19:23;12.70;;;6.07;;
10687;SDS011;5392;42.688;23.298;2024-03-06T10:21:50;12.27;;;6.10;;
10687;SDS011;5392;42.688;23.298;2024-03-06T10:24:19;10.60;;;6.22;;
10687;SDS011;5392;42.688;23.298;2024-03-06T10:26:54;11.05;;;6.18;;
10687;SDS011;5392;42.688;23.298;2024-03-06T10:29:21;12.40;;;6.35;;
10687;SDS011;5392;42.688;23.298;2024-03-06T10:31:53;15.05;;;6.25;;
10687;SDS011;5392;42.688;23.298;2024-03-06T10:34:23;11.63;;;6.68;;
10687;SDS011;5392;42.688;23.298;2024-03-06T10:37:02;10.77;;;5.68;;
10687;SDS011;5392;42.688;23.298;2024-03-06T10:39:34;10.15;;;5.25;;
10687;SDS011;5392;42.688;23.298;2024-03-06T10:42:02;8.80;;;5.07;;
10687;SDS011;5392;42.688;23.298;2024-03-06T10:47:03;5.90;;;4.68;;
10687;SDS011;5392;42.688;23.298;2024-03-06T10:49:31;7.15;;;5.72;;
10687;SDS011;5392;42.688;23.298;2024-03-06T10:51:58;8.77;;;5.22;;
10687;SDS011;5392;42.688;23.298;2024-03-06T10:54:30;8.73;;;4.95;;
10687;SDS011;5392;42.688;23.298;2024-03-06T10:57:07;8.13;;;5.10;;
10687;SDS011;5392;42.688;23.298;2024-03-06T10:59:35;9.13;;;4.78;;
10687;SDS011;5392;42.688;23.298;2024-03-06T11:04:26;10.52;;;5.25;;
10687;SDS011;5392;42.688;23.298;2024-03-06T11:06:59;8.55;;;5.00;;
10687;SDS011;5392;42.688;23.298;2024-03-06T11:09:43;12.32;;;6.47;;
10687;SDS011;5392;42.688;23.298;2024-03-06T11:12:09;7.93;;;5.28;;
10687;SDS011;5392;42.688;23.298;2024-03-06T11:17:10;7.50;;;4.35;;
10687;SDS011;5392;42.688;23.298;2024-03-06T11:28:23;8.35;;;5.88;;
10687;SDS011;5392;42.688;23.298;2024-03-06T11:30:59;11.38;;;5.38;;
10687;SDS011;5392;42.688;23.298;2024-03-06T11:33:36;9.35;;;6.35;;
10687;SDS011;5392;42.688;23.298;2024-03-06T11:44:07;9.70;;;5.18;;
10687;SDS011;5392;42.688;23.298;2024-03-06T11:46:49;10.23;;;5.63;;
10687;SDS011;5392;42.688;23.298;2024-03-06T11:49:22;8.77;;;5.50;;
10687;SDS011;5392;42.688;23.298;2024-03-06T11:51:57;11.60;;;6.45;;
10687;SDS011;5392;42.688;23.298;2024-03-06T11:54:26;9.32;;;5.63;;
10687;SDS011;5392;42.688;23.298;2024-03-06T11:56:54;12.60;;;6.28;;
10687;SDS011;5392;42.688;23.298;2024-03-06T11:59:24;11.98;;;7.68;;
10687;SDS011;5392;42.688;23.298;2024-03-06T12:01:54;12.98;;;6.15;;
10687;SDS011;5392;42.688;23.298;2024-03-06T12:04:21;13.15;;;6.72;;
10687;SDS011;5392;42.688;23.298;2024-03-06T12:06:47;7.35;;;6.05;;
10687;SDS011;5392;42.688;23.298;2024-03-06T12:09:14;8.98;;;5.80;;
10687;SDS011;5392;42.688;23.298;2024-03-06T12:11:40;10.07;;;5.88;;
10687;SDS011;5392;42.688;23.298;2024-03-06T12:14:12;10.68;;;6.72;;
10687;SDS011;5392;42.688;23.298;2024-03-06T12:16:39;8.35;;;5.43;;
10687;SDS011;5392;42.688;23.298;2024-03-06T12:19:04;10.27;;;5.70;;
10687;SDS011;5392;42.688;23.298;2024-03-06T12:21:33;9.05;;;5.60;;
10687;SDS011;5392;42.688;23.298;2024-03-06T12:24:06;7.97;;;5.85;;
10687;SDS011;5392;42.688;23.298;2024-03-06T12:26:33;9.40;;;6.10;;
10687;SDS011;5392;42.688;23.298;2024-03-06T12:29:06;10.95;;;6.00;;
10687;SDS011;5392;42.688;23.298;2024-03-06T12:31:34;12.02;;;6.15;;
10687;SDS011;5392;42.688;23.298;2024-03-06T12:34:00;10.27;;;5.65;;
10687;SDS011;5392;42.688;23.298;2024-03-06T12:36:29;9.95;;;5.75;;
10687;SDS011;5392;42.688;23.298;2024-03-06T12:38:56;8.32;;;5.30;;
10687;SDS011;5392;42.688;23.298;2024-03-06T12:41:25;8.15;;;4.93;;
10687;SDS011;5392;42.688;23.298;2024-03-06T12:43:54;6.22;;;4.45;;
10687;SDS011;5392;42.688;23.298;2024-03-06T12:46:21;6.68;;;4.13;;
10687;SDS011;5392;42.688;23.298;2024-03-06T12:48:47;5.90;;;3.85;;
10687;SDS011;5392;42.688;23.298;2024-03-06T12:53:38;6.63;;;4.07;;
10687;SDS011;5392;42.688;23.298;2024-03-06T12:56:03;6.57;;;4.30;;
10687;SDS011;5392;42.688;23.298;2024-03-06T12:58:29;7.68;;;4.18;;
10687;SDS011;5392;42.688;23.298;2024-03-06T13:01:00;7.85;;;3.90;;
10687;SDS011;5392;42.688;23.298;2024-03-06T13:03:26;6.93;;;3.90;;
10687;SDS011;5392;42.688;23.298;2024-03-06T13:08:17;6.22;;;3.45;;
10687;SDS011;5392;42.688;23.298;2024-03-06T13:10:43;4.07;;;3.17;;
10687;SDS011;5392;42.688;23.298;2024-03-06T13:13:10;6.57;;;3.92;;
10687;SDS011;5392;42.688;23.298;2024-03-06T13:18:02;10.05;;;3.83;;
10687;SDS011;5392;42.688;23.298;2024-03-06T13:20:31;4.55;;;3.60;;
10687;SDS011;5392;42.688;23.298;2024-03-06T13:22:59;4.70;;;3.88;;
10687;SDS011;5392;42.688;23.298;2024-03-06T13:25:26;6.35;;;3.40;;
10687;SDS011;5392;42.688;23.298;2024-03-06T13:27:52;5.53;;;3.80;;
10687;SDS011;5392;42.688;23.298;2024-03-06T13:30:18;4.15;;;2.83;;
10687;SDS011;5392;42.688;23.298;2024-03-06T13:35:11;4.55;;;3.22;;
10687;SDS011;5392;42.688;23.298;2024-03-06T13:37:41;5.00;;;3.80;;
10687;SDS011;5392;42.688;23.298;2024-03-06T13:40:10;5.65;;;3.40;;
10687;SDS011;5392;42.688;23.298;2024-03-06T13:42:38;5.15;;;3.75;;
10687;SDS011;5392;42.688;23.298;2024-03-06T13:45:07;5.05;;;3.33;;
10687;SDS011;5392;42.688;23.298;2024-03-06T13:47:43;5.07;;;3.78;;
10687;SDS011;5392;42.688;23.298;2024-03-06T13:50:10;6.72;;;4.10;;
10687;SDS011;5392;42.688;23.298;2024-03-06T13:52:37;7.75;;;4.20;;
10687;SDS011;5392;42.688;23.298;2024-03-06T13:55:02;5.85;;;3.80;;
10687;SDS011;5392;42.688;23.298;2024-03-06T13:57:35;6.47;;;3.55;;
10687;SDS011;5392;42.688;23.298;2024-03-06T14:00:05;7.28;;;3.90;;
10687;SDS011;5392;42.688;23.298;2024-03-06T14:02:37;4.75;;;3.95;;
10687;SDS011;5392;42.688;23.298;2024-03-06T14:07:28;7.43;;;4.35;;
10687;SDS011;5392;42.688;23.298;2024-03-06T14:09:53;10.13;;;4.30;;
10687;SDS011;5392;42.688;23.298;2024-03-06T14:12:21;8.35;;;4.43;;
10687;SDS011;5392;42.688;23.298;2024-03-06T14:17:13;7.80;;;4.13;;
10687;SDS011;5392;42.688;23.298;2024-03-06T14:19:39;7.13;;;3.75;;
10687;SDS011;5392;42.688;23.298;2024-03-06T14:22:06;6.63;;;3.88;;
10687;SDS011;5392;42.688;23.298;2024-03-06T14:24:32;7.00;;;4.30;;
10687;SDS011;5392;42.688;23.298;2024-03-06T14:29:23;10.13;;;5.30;;
10687;SDS011;5392;42.688;23.298;2024-03-06T14:31:48;7.38;;;5.25;;
10687;SDS011;5392;42.688;23.298;2024-03-06T14:34:14;10.30;;;5.53;;
10687;SDS011;5392;42.688;23.298;2024-03-06T14:36:39;7.00;;;4.85;;
10687;SDS011;5392;42.688;23.298;2024-03-06T14:39:07;12.02;;;5.35;;
10687;SDS011;5392;42.688;23.298;2024-03-06T14:41:35;11.05;;;5.28;;
10687;SDS011;5392;42.688;23.298;2024-03-06T14:46:26;9.23;;;4.57;;
10687;SDS011;5392;42.688;23.298;2024-03-06T14:48:51;14.20;;;5.50;;
10687;SDS011;5392;42.688;23.298;2024-03-06T14:51:17;11.00;;;6.25;;
10687;SDS011;5392;42.688;23.298;2024-03-06T14:56:08;9.77;;;5.90;;
10687;SDS011;5392;42.688;23.298;2024-03-06T14:58:35;11.88;;;6.43;;
10687;SDS011;5392;42.688;23.298;2024-03-06T15:01:01;10.52;;;6.00;;
10687;SDS011;5392;42.688;23.298;2024-03-06T15:03:27;9.43;;;5.55;;
10687;SDS011;5392;42.688;23.298;2024-03-06T15:05:53;12.70;;;6.55;;
10687;SDS011;5392;42.688;23.298;2024-03-06T15:08:19;11.25;;;6.30;;
10687;SDS011;5392;42.688;23.298;2024-03-06T15:10:44;8.60;;;6.00;;
10687;SDS011;5392;42.688;23.298;2024-03-06T15:13:10;8.32;;;6.38;;
10687;SDS011;5392;42.688;23.298;2024-03-06T15:15:38;10.63;;;6.47;;
10687;SDS011;5392;42.688;23.298;2024-03-06T15:18:05;9.55;;;6.18;;
10687;SDS011;5392;42.688;23.298;2024-03-06T15:20:31;10.15;;;5.90;;
10687;SDS011;5392;42.688;23.298;2024-03-06T15:22:58;8.77;;;6.13;;
10687;SDS011;5392;42.688;23.298;2024-03-06T15:25:24;8.88;;;5.93;;
10687;SDS011;5392;42.688;23.298;2024-03-06T15:27:49;12.50;;;6.43;;
10687;SDS011;5392;42.688;23.298;2024-03-06T15:30:15;24.63;;;12.23;;
10687;SDS011;5392;42.688;23.298;2024-03-06T15:32:42;11.55;;;7.35;;